sensor_id;sensor_type;location;lat;lon;timestamp;P1;durP1;ratioP1;P2;durP2;ratioP2
22320;SDS011;11328;53.928;18.522;2023-08-06T00:02:06;10.48;;;4.80;;
22320;SDS011;11328;53.928;18.522;2023-08-06T00:04:33;9.20;;;4.03;;
22320;SDS011;11328;53.928;18.522;2023-08-06T00:07:00;13.07;;;4.60;;
22320;SDS011;11328;53.928;18.522;2023-08-06T00:09:27;12.48;;;4.28;;
22320;SDS011;11328;53.928;18.522;2023-08-06T00:11:54;10.48;;;4.50;;
22320;SDS011;11328;53.928;18.522;2023-08-06T00:14:20;8.98;;;4.30;;
22320;SDS011;11328;53.928;18.522;2023-08-06T00:16:48;9.25;;;4.43;;
22320;SDS011;11328;53.928;18.522;2023-08-06T00:19:15;10.57;;;4.40;;
22320;SDS011;11328;53.928;18.522;2023-08-06T00:21:42;11.93;;;4.22;;
22320;SDS011;11328;53.928;18.522;2023-08-06T00:24:08;10.73;;;5.38;;
22320;SDS011;11328;53.928;18.522;2023-08-06T00:26:35;11.93;;;5.22;;
22320;SDS011;11328;53.928;18.522;2023-08-06T00:29:02;10.93;;;4.78;;
22320;SDS011;11328;53.928;18.522;2023-08-06T00:31:29;13.15;;;4.97;;
22320;SDS011;11328;53.928;18.522;2023-08-06T00:33:56;11.85;;;4.75;;
22320;SDS011;11328;53.928;18.522;2023-08-06T00:36:23;12.57;;;5.22;;
22320;SDS011;11328;53.928;18.522;2023-08-06T00:38:50;10.95;;;5.20;;
22320;SDS011;11328;53.928;18.522;2023-08-06T00:41:18;13.30;;;5.20;;
22320;SDS011;11328;53.928;18.522;2023-08-06T00:43:45;14.18;;;5.22;;
22320;SDS011;11328;53.928;18.522;2023-08-06T00:46:11;12.32;;;5.35;;
22320;SDS011;11328;53.928;18.522;2023-08-06T00:48:39;13.77;;;5.88;;
22320;SDS011;11328;53.928;18.522;2023-08-06T00:51:10;11.05;;;5.30;;
22320;SDS011;11328;53.928;18.522;2023-08-06T00:53:38;11.68;;;5.60;;
22320;SDS011;11328;53.928;18.522;2023-08-06T00:56:06;11.93;;;5.43;;
22320;SDS011;11328;53.928;18.522;2023-08-06T00:58:35;12.20;;;5.72;;
22320;SDS011;11328;53.928;18.522;2023-08-06T01:01:04;12.20;;;5.60;;
22320;SDS011;11328;53.928;18.522;2023-08-06T01:03:31;13.15;;;5.70;;
22320;SDS011;11328;53.928;18.522;2023-08-06T01:05:58;11.70;;;5.43;;
22320;SDS011;11328;53.928;18.522;2023-08-06T01:17:18;11.60;;;5.22;;
22320;SDS011;11328;53.928;18.522;2023-08-06T01:19:46;13.00;;;5.70;;
22320;SDS011;11328;53.928;18.522;2023-08-06T01:22:13;13.32;;;5.30;;
22320;SDS011;11328;53.928;18.522;2023-08-06T01:24:40;14.82;;;5.90;;
22320;SDS011;11328;53.928;18.522;2023-08-06T01:27:17;14.27;;;5.65;;
22320;SDS011;11328;53.928;18.522;2023-08-06T01:30:02;14.95;;;5.63;;
22320;SDS011;11328;53.928;18.522;2023-08-06T01:32:39;12.50;;;5.15;;
22320;SDS011;11328;53.928;18.522;2023-08-06T01:35:12;12.07;;;5.32;;
22320;SDS011;11328;53.928;18.522;2023-08-06T01:37:42;13.93;;;6.53;;
22320;SDS011;11328;53.928;18.522;2023-08-06T01:40:10;16.17;;;5.68;;
22320;SDS011;11328;53.928;18.522;2023-08-06T01:42:39;12.52;;;5.55;;
22320;SDS011;11328;53.928;18.522;2023-08-06T01:45:07;12.38;;;5.63;;
22320;SDS011;11328;53.928;18.522;2023-08-06T01:47:34;15.70;;;5.93;;
22320;SDS011;11328;53.928;18.522;2023-08-06T01:50:02;14.00;;;6.00;;
22320;SDS011;11328;53.928;18.522;2023-08-06T01:52:30;13.50;;;5.30;;
22320;SDS011;11328;53.928;18.522;2023-08-06T01:54:57;12.55;;;5.03;;
22320;SDS011;11328;53.928;18.522;2023-08-06T01:57:24;15.70;;;5.32;;
22320;SDS011;11328;53.928;18.522;2023-08-06T01:59:50;15.20;;;5.68;;
22320;SDS011;11328;53.928;18.522;2023-08-06T02:02:17;11.30;;;4.93;;
22320;SDS011;11328;53.928;18.522;2023-08-06T02:04:44;10.90;;;5.00;;
22320;SDS011;11328;53.928;18.522;2023-08-06T02:07:11;11.55;;;4.72;;
22320;SDS011;11328;53.928;18.522;2023-08-06T02:09:38;13.48;;;4.80;;
22320;SDS011;11328;53.928;18.522;2023-08-06T02:12:06;13.93;;;5.10;;
22320;SDS011;11328;53.928;18.522;2023-08-06T02:14:33;11.88;;;5.10;;
22320;SDS011;11328;53.928;18.522;2023-08-06T02:17:01;14.90;;;5.35;;
22320;SDS011;11328;53.928;18.522;2023-08-06T02:19:28;15.45;;;5.50;;
22320;SDS011;11328;53.928;18.522;2023-08-06T02:21:55;12.18;;;5.10;;
22320;SDS011;11328;53.928;18.522;2023-08-06T02:24:22;14.18;;;5.38;;
22320;SDS011;11328;53.928;18.522;2023-08-06T02:26:49;11.15;;;5.35;;
22320;SDS011;11328;53.928;18.522;2023-08-06T02:29:17;11.75;;;5.53;;
22320;SDS011;11328;53.928;18.522;2023-08-06T02:31:44;10.38;;;5.40;;
22320;SDS011;11328;53.928;18.522;2023-08-06T02:34:11;9.75;;;4.88;;
22320;SDS011;11328;53.928;18.522;2023-08-06T02:36:39;12.80;;;4.97;;
22320;SDS011;11328;53.928;18.522;2023-08-06T02:39:06;8.90;;;5.15;;
22320;SDS011;11328;53.928;18.522;2023-08-06T02:41:33;11.93;;;5.00;;
22320;SDS011;11328;53.928;18.522;2023-08-06T02:43:59;15.15;;;5.28;;
22320;SDS011;11328;53.928;18.522;2023-08-06T02:46:26;11.85;;;5.75;;
22320;SDS011;11328;53.928;18.522;2023-08-06T02:48:53;11.27;;;5.43;;
22320;SDS011;11328;53.928;18.522;2023-08-06T02:51:20;12.55;;;5.57;;
22320;SDS011;11328;53.928;18.522;2023-08-06T02:53:47;12.70;;;5.72;;
22320;SDS011;11328;53.928;18.522;2023-08-06T02:56:15;12.68;;;6.00;;
22320;SDS011;11328;53.928;18.522;2023-08-06T02:58:42;13.32;;;6.50;;
22320;SDS011;11328;53.928;18.522;2023-08-06T03:01:09;9.60;;;5.85;;
22320;SDS011;11328;53.928;18.522;2023-08-06T03:03:36;14.25;;;6.90;;
22320;SDS011;11328;53.928;18.522;2023-08-06T03:06:03;11.60;;;6.65;;
22320;SDS011;11328;53.928;18.522;2023-08-06T03:08:30;11.88;;;6.00;;
22320;SDS011;11328;53.928;18.522;2023-08-06T03:10:57;11.13;;;6.47;;
22320;SDS011;11328;53.928;18.522;2023-08-06T03:13:24;10.27;;;5.53;;
22320;SDS011;11328;53.928;18.522;2023-08-06T03:15:52;11.20;;;5.47;;
22320;SDS011;11328;53.928;18.522;2023-08-06T03:20:54;10.05;;;5.65;;
22320;SDS011;11328;53.928;18.522;2023-08-06T03:23:21;11.00;;;5.03;;
22320;SDS011;11328;53.928;18.522;2023-08-06T03:25:49;9.18;;;4.90;;
22320;SDS011;11328;53.928;18.522;2023-08-06T03:28:16;10.63;;;5.20;;
22320;SDS011;11328;53.928;18.522;2023-08-06T03:30:43;9.07;;;5.20;;
22320;SDS011;11328;53.928;18.522;2023-08-06T03:33:09;9.73;;;5.75;;
22320;SDS011;11328;53.928;18.522;2023-08-06T03:35:36;9.45;;;5.88;;
22320;SDS011;11328;53.928;18.522;2023-08-06T03:38:03;9.55;;;5.45;;
22320;SDS011;11328;53.928;18.522;2023-08-06T03:40:30;11.77;;;5.75;;
22320;SDS011;11328;53.928;18.522;2023-08-06T03:42:57;10.88;;;6.03;;
22320;SDS011;11328;53.928;18.522;2023-08-06T03:45:24;10.10;;;5.70;;
22320;SDS011;11328;53.928;18.522;2023-08-06T03:47:51;8.57;;;5.10;;
22320;SDS011;11328;53.928;18.522;2023-08-06T03:50:18;8.43;;;5.18;;
22320;SDS011;11328;53.928;18.522;2023-08-06T03:52:45;10.15;;;5.28;;
22320;SDS011;11328;53.928;18.522;2023-08-06T03:55:12;10.10;;;5.45;;
22320;SDS011;11328;53.928;18.522;2023-08-06T03:57:39;9.20;;;5.88;;
22320;SDS011;11328;53.928;18.522;2023-08-06T04:00:06;11.07;;;5.13;;
22320;SDS011;11328;53.928;18.522;2023-08-06T04:02:34;10.02;;;5.30;;
22320;SDS011;11328;53.928;18.522;2023-08-06T04:05:01;10.25;;;5.28;;
22320;SDS011;11328;53.928;18.522;2023-08-06T04:07:28;10.00;;;4.85;;
22320;SDS011;11328;53.928;18.522;2023-08-06T04:09:56;10.20;;;4.85;;
22320;SDS011;11328;53.928;18.522;2023-08-06T04:12:25;12.73;;;5.22;;
22320;SDS011;11328;53.928;18.522;2023-08-06T04:14:53;8.70;;;4.68;;
22320;SDS011;11328;53.928;18.522;2023-08-06T04:17:22;10.65;;;4.78;;
22320;SDS011;11328;53.928;18.522;2023-08-06T04:19:50;10.88;;;4.70;;
22320;SDS011;11328;53.928;18.522;2023-08-06T04:22:19;11.63;;;5.13;;
22320;SDS011;11328;53.928;18.522;2023-08-06T04:24:47;13.10;;;4.78;;
22320;SDS011;11328;53.928;18.522;2023-08-06T04:27:15;11.00;;;4.93;;
22320;SDS011;11328;53.928;18.522;2023-08-06T04:29:43;10.55;;;4.57;;
22320;SDS011;11328;53.928;18.522;2023-08-06T04:32:10;11.65;;;4.55;;
22320;SDS011;11328;53.928;18.522;2023-08-06T04:34:37;9.32;;;4.55;;
22320;SDS011;11328;53.928;18.522;2023-08-06T04:37:04;9.15;;;4.65;;
22320;SDS011;11328;53.928;18.522;2023-08-06T04:39:31;13.40;;;5.03;;
22320;SDS011;11328;53.928;18.522;2023-08-06T04:41:58;12.27;;;4.82;;
22320;SDS011;11328;53.928;18.522;2023-08-06T04:44:25;12.15;;;5.07;;
22320;SDS011;11328;53.928;18.522;2023-08-06T04:46:52;12.68;;;5.13;;
22320;SDS011;11328;53.928;18.522;2023-08-06T04:49:22;12.15;;;5.07;;
22320;SDS011;11328;53.928;18.522;2023-08-06T04:51:50;16.75;;;5.70;;
22320;SDS011;11328;53.928;18.522;2023-08-06T04:54:18;12.07;;;5.65;;
22320;SDS011;11328;53.928;18.522;2023-08-06T04:56:45;11.60;;;5.85;;
22320;SDS011;11328;53.928;18.522;2023-08-06T04:59:12;16.13;;;5.90;;
22320;SDS011;11328;53.928;18.522;2023-08-06T05:01:39;13.82;;;6.43;;
22320;SDS011;11328;53.928;18.522;2023-08-06T05:04:06;16.63;;;6.32;;
22320;SDS011;11328;53.928;18.522;2023-08-06T05:06:33;13.07;;;6.30;;
22320;SDS011;11328;53.928;18.522;2023-08-06T05:09:00;13.45;;;5.97;;
22320;SDS011;11328;53.928;18.522;2023-08-06T05:11:27;14.70;;;6.78;;
22320;SDS011;11328;53.928;18.522;2023-08-06T05:13:54;15.55;;;6.70;;
22320;SDS011;11328;53.928;18.522;2023-08-06T05:16:20;14.35;;;6.95;;
22320;SDS011;11328;53.928;18.522;2023-08-06T05:18:47;16.02;;;7.00;;
22320;SDS011;11328;53.928;18.522;2023-08-06T05:21:14;17.88;;;7.32;;
22320;SDS011;11328;53.928;18.522;2023-08-06T05:23:42;14.95;;;7.15;;
22320;SDS011;11328;53.928;18.522;2023-08-06T05:26:09;22.00;;;7.10;;
22320;SDS011;11328;53.928;18.522;2023-08-06T05:28:36;17.20;;;7.15;;
22320;SDS011;11328;53.928;18.522;2023-08-06T05:31:04;17.85;;;6.85;;
22320;SDS011;11328;53.928;18.522;2023-08-06T05:33:31;18.95;;;7.28;;
22320;SDS011;11328;53.928;18.522;2023-08-06T05:35:58;17.27;;;7.32;;
22320;SDS011;11328;53.928;18.522;2023-08-06T05:38:25;17.00;;;6.75;;
22320;SDS011;11328;53.928;18.522;2023-08-06T05:40:52;17.13;;;7.07;;
22320;SDS011;11328;53.928;18.522;2023-08-06T05:43:19;15.38;;;6.38;;
22320;SDS011;11328;53.928;18.522;2023-08-06T05:45:46;12.15;;;6.13;;
22320;SDS011;11328;53.928;18.522;2023-08-06T05:48:16;16.75;;;7.05;;
22320;SDS011;11328;53.928;18.522;2023-08-06T05:50:43;13.85;;;6.45;;
22320;SDS011;11328;53.928;18.522;2023-08-06T05:53:10;20.88;;;6.53;;
22320;SDS011;11328;53.928;18.522;2023-08-06T05:55:37;18.00;;;6.30;;
22320;SDS011;11328;53.928;18.522;2023-08-06T05:58:05;20.90;;;6.60;;
22320;SDS011;11328;53.928;18.522;2023-08-06T06:00:32;13.48;;;6.18;;
22320;SDS011;11328;53.928;18.522;2023-08-06T06:02:59;18.05;;;6.20;;
22320;SDS011;11328;53.928;18.522;2023-08-06T06:05:26;20.02;;;6.95;;
22320;SDS011;11328;53.928;18.522;2023-08-06T06:07:53;19.20;;;6.75;;
22320;SDS011;11328;53.928;18.522;2023-08-06T06:10:20;16.10;;;6.32;;
22320;SDS011;11328;53.928;18.522;2023-08-06T06:12:47;13.48;;;5.95;;
22320;SDS011;11328;53.928;18.522;2023-08-06T06:15:14;16.42;;;6.53;;
22320;SDS011;11328;53.928;18.522;2023-08-06T06:17:41;16.67;;;6.80;;
22320;SDS011;11328;53.928;18.522;2023-08-06T06:20:08;17.55;;;6.85;;
22320;SDS011;11328;53.928;18.522;2023-08-06T06:22:35;18.70;;;6.65;;
22320;SDS011;11328;53.928;18.522;2023-08-06T06:25:02;12.73;;;6.85;;
22320;SDS011;11328;53.928;18.522;2023-08-06T06:27:29;17.33;;;7.07;;
22320;SDS011;11328;53.928;18.522;2023-08-06T06:29:56;14.07;;;6.20;;
22320;SDS011;11328;53.928;18.522;2023-08-06T06:32:23;15.75;;;5.80;;
22320;SDS011;11328;53.928;18.522;2023-08-06T06:34:51;17.15;;;6.10;;
22320;SDS011;11328;53.928;18.522;2023-08-06T06:37:18;15.00;;;6.15;;
22320;SDS011;11328;53.928;18.522;2023-08-06T06:39:45;20.15;;;5.95;;
22320;SDS011;11328;53.928;18.522;2023-08-06T06:42:12;18.40;;;6.35;;
22320;SDS011;11328;53.928;18.522;2023-08-06T06:44:39;14.65;;;6.07;;
22320;SDS011;11328;53.928;18.522;2023-08-06T06:47:05;15.85;;;6.43;;
22320;SDS011;11328;53.928;18.522;2023-08-06T06:49:32;15.95;;;6.18;;
22320;SDS011;11328;53.928;18.522;2023-08-06T06:51:59;16.63;;;6.38;;
22320;SDS011;11328;53.928;18.522;2023-08-06T06:54:26;20.80;;;6.10;;
22320;SDS011;11328;53.928;18.522;2023-08-06T06:56:53;16.42;;;6.13;;
22320;SDS011;11328;53.928;18.522;2023-08-06T06:59:20;15.75;;;6.35;;
22320;SDS011;11328;53.928;18.522;2023-08-06T07:01:47;18.17;;;6.65;;
22320;SDS011;11328;53.928;18.522;2023-08-06T07:04:14;12.35;;;6.22;;
22320;SDS011;11328;53.928;18.522;2023-08-06T07:06:41;14.65;;;6.60;;
22320;SDS011;11328;53.928;18.522;2023-08-06T07:09:08;14.65;;;6.22;;
22320;SDS011;11328;53.928;18.522;2023-08-06T07:11:35;21.33;;;6.57;;
22320;SDS011;11328;53.928;18.522;2023-08-06T07:14:02;16.52;;;6.30;;
22320;SDS011;11328;53.928;18.522;2023-08-06T07:16:29;17.88;;;6.50;;
22320;SDS011;11328;53.928;18.522;2023-08-06T07:18:56;14.20;;;5.75;;
22320;SDS011;11328;53.928;18.522;2023-08-06T07:21:23;19.10;;;6.28;;
22320;SDS011;11328;53.928;18.522;2023-08-06T07:23:50;17.52;;;6.30;;
22320;SDS011;11328;53.928;18.522;2023-08-06T07:26:17;14.85;;;5.97;;
22320;SDS011;11328;53.928;18.522;2023-08-06T07:28:44;15.05;;;5.78;;
22320;SDS011;11328;53.928;18.522;2023-08-06T07:31:11;17.08;;;6.22;;
22320;SDS011;11328;53.928;18.522;2023-08-06T07:33:38;12.95;;;5.65;;
22320;SDS011;11328;53.928;18.522;2023-08-06T07:36:10;12.23;;;6.35;;
22320;SDS011;11328;53.928;18.522;2023-08-06T07:38:39;14.95;;;5.93;;
22320;SDS011;11328;53.928;18.522;2023-08-06T07:41:06;11.90;;;5.60;;
22320;SDS011;11328;53.928;18.522;2023-08-06T07:43:35;13.18;;;5.82;;
22320;SDS011;11328;53.928;18.522;2023-08-06T07:46:02;10.05;;;5.57;;
22320;SDS011;11328;53.928;18.522;2023-08-06T07:48:29;14.27;;;5.85;;
22320;SDS011;11328;53.928;18.522;2023-08-06T07:50:56;12.30;;;5.68;;
22320;SDS011;11328;53.928;18.522;2023-08-06T07:53:24;13.20;;;5.68;;
22320;SDS011;11328;53.928;18.522;2023-08-06T07:55:58;11.88;;;5.70;;
22320;SDS011;11328;53.928;18.522;2023-08-06T07:58:25;10.15;;;5.65;;
22320;SDS011;11328;53.928;18.522;2023-08-06T08:00:53;12.38;;;5.97;;
22320;SDS011;11328;53.928;18.522;2023-08-06T08:03:20;11.02;;;5.80;;
22320;SDS011;11328;53.928;18.522;2023-08-06T08:05:47;13.93;;;6.50;;
22320;SDS011;11328;53.928;18.522;2023-08-06T08:08:14;15.10;;;6.22;;
22320;SDS011;11328;53.928;18.522;2023-08-06T08:10:41;10.43;;;5.60;;
22320;SDS011;11328;53.928;18.522;2023-08-06T08:13:08;10.77;;;5.53;;
22320;SDS011;11328;53.928;18.522;2023-08-06T08:15:36;11.75;;;5.43;;
22320;SDS011;11328;53.928;18.522;2023-08-06T08:18:03;10.85;;;5.93;;
22320;SDS011;11328;53.928;18.522;2023-08-06T08:20:30;11.30;;;5.65;;
22320;SDS011;11328;53.928;18.522;2023-08-06T08:23:01;11.80;;;5.72;;
22320;SDS011;11328;53.928;18.522;2023-08-06T08:25:29;10.73;;;5.43;;
22320;SDS011;11328;53.928;18.522;2023-08-06T08:27:57;8.48;;;5.18;;
22320;SDS011;11328;53.928;18.522;2023-08-06T08:30:24;11.68;;;5.30;;
22320;SDS011;11328;53.928;18.522;2023-08-06T08:32:52;10.13;;;5.70;;
22320;SDS011;11328;53.928;18.522;2023-08-06T08:35:19;10.10;;;5.68;;
22320;SDS011;11328;53.928;18.522;2023-08-06T08:37:46;11.73;;;5.90;;
22320;SDS011;11328;53.928;18.522;2023-08-06T08:40:13;12.13;;;6.30;;
22320;SDS011;11328;53.928;18.522;2023-08-06T08:42:41;10.25;;;6.00;;
22320;SDS011;11328;53.928;18.522;2023-08-06T08:45:13;12.18;;;6.30;;
22320;SDS011;11328;53.928;18.522;2023-08-06T08:47:41;9.50;;;5.80;;
22320;SDS011;11328;53.928;18.522;2023-08-06T08:50:10;13.77;;;6.22;;
22320;SDS011;11328;53.928;18.522;2023-08-06T08:52:38;9.20;;;5.88;;
22320;SDS011;11328;53.928;18.522;2023-08-06T08:55:07;10.82;;;6.53;;
22320;SDS011;11328;53.928;18.522;2023-08-06T08:57:34;11.13;;;6.43;;
22320;SDS011;11328;53.928;18.522;2023-08-06T09:00:02;15.30;;;7.25;;
22320;SDS011;11328;53.928;18.522;2023-08-06T09:02:31;11.77;;;6.78;;
22320;SDS011;11328;53.928;18.522;2023-08-06T09:05:00;11.68;;;7.40;;
22320;SDS011;11328;53.928;18.522;2023-08-06T09:07:32;11.18;;;6.57;;
22320;SDS011;11328;53.928;18.522;2023-08-06T09:10:05;10.90;;;6.93;;
22320;SDS011;11328;53.928;18.522;2023-08-06T09:12:37;9.15;;;7.32;;
22320;SDS011;11328;53.928;18.522;2023-08-06T09:15:04;12.50;;;7.80;;
22320;SDS011;11328;53.928;18.522;2023-08-06T09:17:32;14.60;;;8.52;;
22320;SDS011;11328;53.928;18.522;2023-08-06T09:19:59;14.55;;;7.15;;
22320;SDS011;11328;53.928;18.522;2023-08-06T09:22:35;12.88;;;7.65;;
22320;SDS011;11328;53.928;18.522;2023-08-06T09:25:02;10.68;;;7.65;;
22320;SDS011;11328;53.928;18.522;2023-08-06T09:27:32;10.00;;;7.70;;
22320;SDS011;11328;53.928;18.522;2023-08-06T09:29:59;10.20;;;7.53;;
22320;SDS011;11328;53.928;18.522;2023-08-06T09:32:26;12.38;;;7.40;;
22320;SDS011;11328;53.928;18.522;2023-08-06T09:34:56;10.27;;;7.22;;
22320;SDS011;11328;53.928;18.522;2023-08-06T09:37:23;10.88;;;8.07;;
22320;SDS011;11328;53.928;18.522;2023-08-06T09:40:02;12.32;;;7.68;;
22320;SDS011;11328;53.928;18.522;2023-08-06T09:42:29;11.63;;;8.68;;
22320;SDS011;11328;53.928;18.522;2023-08-06T09:45:05;13.82;;;8.88;;
22320;SDS011;11328;53.928;18.522;2023-08-06T09:47:33;12.25;;;8.50;;
22320;SDS011;11328;53.928;18.522;2023-08-06T09:50:00;15.38;;;8.68;;
22320;SDS011;11328;53.928;18.522;2023-08-06T09:52:27;15.23;;;9.23;;
22320;SDS011;11328;53.928;18.522;2023-08-06T09:54:54;15.52;;;8.68;;
22320;SDS011;11328;53.928;18.522;2023-08-06T09:57:21;13.50;;;8.93;;
22320;SDS011;11328;53.928;18.522;2023-08-06T09:59:51;12.63;;;9.13;;
22320;SDS011;11328;53.928;18.522;2023-08-06T10:02:19;11.93;;;8.82;;
22320;SDS011;11328;53.928;18.522;2023-08-06T10:04:53;14.73;;;9.60;;
22320;SDS011;11328;53.928;18.522;2023-08-06T10:07:23;16.00;;;10.10;;
22320;SDS011;11328;53.928;18.522;2023-08-06T10:09:51;15.48;;;10.57;;
22320;SDS011;11328;53.928;18.522;2023-08-06T10:12:18;17.80;;;10.68;;
22320;SDS011;11328;53.928;18.522;2023-08-06T10:14:46;14.85;;;10.02;;
22320;SDS011;11328;53.928;18.522;2023-08-06T10:17:15;18.65;;;10.65;;
22320;SDS011;11328;53.928;18.522;2023-08-06T10:19:43;15.90;;;11.35;;
22320;SDS011;11328;53.928;18.522;2023-08-06T10:22:13;17.20;;;11.55;;
22320;SDS011;11328;53.928;18.522;2023-08-06T10:24:48;14.98;;;11.13;;
22320;SDS011;11328;53.928;18.522;2023-08-06T10:28:02;16.70;;;10.63;;
22320;SDS011;11328;53.928;18.522;2023-08-06T10:30:31;15.98;;;11.18;;
22320;SDS011;11328;53.928;18.522;2023-08-06T10:33:00;18.95;;;11.95;;
22320;SDS011;11328;53.928;18.522;2023-08-06T10:35:48;15.20;;;12.00;;
22320;SDS011;11328;53.928;18.522;2023-08-06T10:43:31;17.52;;;12.02;;
22320;SDS011;11328;53.928;18.522;2023-08-06T10:46:09;16.73;;;11.73;;
22320;SDS011;11328;53.928;18.522;2023-08-06T10:48:38;16.98;;;13.10;;
22320;SDS011;11328;53.928;18.522;2023-08-06T10:51:08;15.13;;;12.15;;
22320;SDS011;11328;53.928;18.522;2023-08-06T10:53:37;15.77;;;12.07;;
22320;SDS011;11328;53.928;18.522;2023-08-06T10:56:26;15.43;;;11.48;;
22320;SDS011;11328;53.928;18.522;2023-08-06T10:58:54;18.95;;;11.68;;
22320;SDS011;11328;53.928;18.522;2023-08-06T11:01:23;21.58;;;13.32;;
22320;SDS011;11328;53.928;18.522;2023-08-06T11:03:51;15.63;;;12.75;;
22320;SDS011;11328;53.928;18.522;2023-08-06T11:06:20;19.23;;;13.23;;
22320;SDS011;11328;53.928;18.522;2023-08-06T11:08:52;19.60;;;12.73;;
22320;SDS011;11328;53.928;18.522;2023-08-06T11:11:22;16.48;;;13.15;;
22320;SDS011;11328;53.928;18.522;2023-08-06T11:13:50;18.35;;;12.70;;
22320;SDS011;11328;53.928;18.522;2023-08-06T11:16:19;14.52;;;12.77;;
22320;SDS011;11328;53.928;18.522;2023-08-06T11:18:53;16.77;;;12.32;;
22320;SDS011;11328;53.928;18.522;2023-08-06T11:21:22;17.45;;;12.23;;
22320;SDS011;11328;53.928;18.522;2023-08-06T11:23:51;19.10;;;12.38;;
22320;SDS011;11328;53.928;18.522;2023-08-06T11:26:20;15.60;;;12.13;;
22320;SDS011;11328;53.928;18.522;2023-08-06T11:28:49;17.92;;;13.00;;
22320;SDS011;11328;53.928;18.522;2023-08-06T11:31:20;17.42;;;13.43;;
22320;SDS011;11328;53.928;18.522;2023-08-06T11:33:50;18.73;;;12.77;;
22320;SDS011;11328;53.928;18.522;2023-08-06T11:36:31;18.42;;;12.43;;
22320;SDS011;11328;53.928;18.522;2023-08-06T11:39:00;18.42;;;14.90;;
22320;SDS011;11328;53.928;18.522;2023-08-06T11:41:29;17.17;;;13.20;;
22320;SDS011;11328;53.928;18.522;2023-08-06T11:43:57;15.48;;;12.63;;
22320;SDS011;11328;53.928;18.522;2023-08-06T11:46:25;19.40;;;13.32;;
22320;SDS011;11328;53.928;18.522;2023-08-06T11:48:56;17.42;;;12.45;;
22320;SDS011;11328;53.928;18.522;2023-08-06T11:51:25;16.40;;;12.90;;
22320;SDS011;11328;53.928;18.522;2023-08-06T11:53:55;15.82;;;12.63;;
22320;SDS011;11328;53.928;18.522;2023-08-06T11:56:26;19.50;;;12.82;;
22320;SDS011;11328;53.928;18.522;2023-08-06T11:58:54;19.15;;;13.32;;
22320;SDS011;11328;53.928;18.522;2023-08-06T12:01:22;15.85;;;14.00;;
22320;SDS011;11328;53.928;18.522;2023-08-06T12:03:49;18.27;;;13.98;;
22320;SDS011;11328;53.928;18.522;2023-08-06T12:06:16;16.30;;;13.20;;
22320;SDS011;11328;53.928;18.522;2023-08-06T12:08:43;19.15;;;14.60;;
22320;SDS011;11328;53.928;18.522;2023-08-06T12:11:10;20.90;;;13.63;;
22320;SDS011;11328;53.928;18.522;2023-08-06T12:13:37;18.67;;;14.10;;
22320;SDS011;11328;53.928;18.522;2023-08-06T12:16:04;20.13;;;14.60;;
22320;SDS011;11328;53.928;18.522;2023-08-06T12:18:31;16.85;;;14.68;;
22320;SDS011;11328;53.928;18.522;2023-08-06T12:20:58;16.45;;;14.10;;
22320;SDS011;11328;53.928;18.522;2023-08-06T12:23:25;21.60;;;14.27;;
22320;SDS011;11328;53.928;18.522;2023-08-06T12:25:52;15.13;;;13.18;;
22320;SDS011;11328;53.928;18.522;2023-08-06T12:28:19;18.38;;;13.15;;
22320;SDS011;11328;53.928;18.522;2023-08-06T12:30:49;16.95;;;13.25;;
22320;SDS011;11328;53.928;18.522;2023-08-06T12:33:17;19.73;;;13.77;;
22320;SDS011;11328;53.928;18.522;2023-08-06T12:35:44;16.80;;;13.50;;
22320;SDS011;11328;53.928;18.522;2023-08-06T12:38:11;18.15;;;12.82;;
22320;SDS011;11328;53.928;18.522;2023-08-06T12:40:39;16.15;;;13.70;;
22320;SDS011;11328;53.928;18.522;2023-08-06T12:43:09;16.00;;;13.52;;
22320;SDS011;11328;53.928;18.522;2023-08-06T12:45:36;18.40;;;13.73;;
22320;SDS011;11328;53.928;18.522;2023-08-06T12:48:03;16.05;;;13.73;;
22320;SDS011;11328;53.928;18.522;2023-08-06T12:50:32;20.95;;;13.00;;
22320;SDS011;11328;53.928;18.522;2023-08-06T12:53:03;16.90;;;12.98;;
22320;SDS011;11328;53.928;18.522;2023-08-06T12:55:32;16.38;;;13.15;;
22320;SDS011;11328;53.928;18.522;2023-08-06T12:57:59;19.55;;;14.48;;
22320;SDS011;11328;53.928;18.522;2023-08-06T13:00:26;15.48;;;13.30;;
22320;SDS011;11328;53.928;18.522;2023-08-06T13:02:53;19.08;;;13.45;;
22320;SDS011;11328;53.928;18.522;2023-08-06T13:05:21;20.92;;;13.77;;
22320;SDS011;11328;53.928;18.522;2023-08-06T13:07:47;15.98;;;12.80;;
22320;SDS011;11328;53.928;18.522;2023-08-06T13:10:14;15.32;;;12.77;;
22320;SDS011;11328;53.928;18.522;2023-08-06T13:12:43;15.48;;;12.90;;
22320;SDS011;11328;53.928;18.522;2023-08-06T13:15:10;15.65;;;12.80;;
22320;SDS011;11328;53.928;18.522;2023-08-06T13:17:37;15.30;;;12.32;;
22320;SDS011;11328;53.928;18.522;2023-08-06T13:20:04;18.80;;;13.70;;
22320;SDS011;11328;53.928;18.522;2023-08-06T13:22:32;15.90;;;12.70;;
22320;SDS011;11328;53.928;18.522;2023-08-06T13:25:02;15.77;;;12.85;;
22320;SDS011;11328;53.928;18.522;2023-08-06T13:27:29;17.00;;;12.20;;
22320;SDS011;11328;53.928;18.522;2023-08-06T13:29:56;16.98;;;13.10;;
22320;SDS011;11328;53.928;18.522;2023-08-06T13:32:23;19.90;;;13.00;;
22320;SDS011;11328;53.928;18.522;2023-08-06T13:34:50;19.02;;;13.80;;
22320;SDS011;11328;53.928;18.522;2023-08-06T13:37:17;17.33;;;12.88;;
22320;SDS011;11328;53.928;18.522;2023-08-06T13:39:44;15.65;;;13.07;;
22320;SDS011;11328;53.928;18.522;2023-08-06T13:42:11;16.75;;;12.60;;
22320;SDS011;11328;53.928;18.522;2023-08-06T13:44:38;16.50;;;11.95;;
22320;SDS011;11328;53.928;18.522;2023-08-06T13:47:05;15.57;;;13.10;;
22320;SDS011;11328;53.928;18.522;2023-08-06T13:49:32;16.63;;;12.15;;
22320;SDS011;11328;53.928;18.522;2023-08-06T13:51:59;16.08;;;12.65;;
22320;SDS011;11328;53.928;18.522;2023-08-06T13:54:46;15.38;;;12.38;;
22320;SDS011;11328;53.928;18.522;2023-08-06T13:57:13;15.57;;;11.98;;
22320;SDS011;11328;53.928;18.522;2023-08-06T13:59:40;15.52;;;12.73;;
22320;SDS011;11328;53.928;18.522;2023-08-06T14:02:07;19.83;;;12.32;;
22320;SDS011;11328;53.928;18.522;2023-08-06T14:04:34;19.25;;;11.77;;
22320;SDS011;11328;53.928;18.522;2023-08-06T14:07:01;18.13;;;12.02;;
22320;SDS011;11328;53.928;18.522;2023-08-06T14:09:28;16.00;;;11.57;;
22320;SDS011;11328;53.928;18.522;2023-08-06T14:11:56;15.25;;;11.80;;
22320;SDS011;11328;53.928;18.522;2023-08-06T14:14:23;20.08;;;11.85;;
22320;SDS011;11328;53.928;18.522;2023-08-06T14:16:52;16.38;;;12.02;;
22320;SDS011;11328;53.928;18.522;2023-08-06T14:19:21;13.90;;;11.55;;
22320;SDS011;11328;53.928;18.522;2023-08-06T14:21:49;17.58;;;11.73;;
22320;SDS011;11328;53.928;18.522;2023-08-06T14:24:17;20.33;;;11.98;;
22320;SDS011;11328;53.928;18.522;2023-08-06T14:26:44;18.85;;;11.80;;
22320;SDS011;11328;53.928;18.522;2023-08-06T14:29:11;18.92;;;12.57;;
22320;SDS011;11328;53.928;18.522;2023-08-06T14:31:40;16.88;;;11.75;;
22320;SDS011;11328;53.928;18.522;2023-08-06T14:34:07;23.33;;;11.90;;
22320;SDS011;11328;53.928;18.522;2023-08-06T14:36:34;15.02;;;11.35;;
22320;SDS011;11328;53.928;18.522;2023-08-06T14:39:01;17.00;;;11.82;;
22320;SDS011;11328;53.928;18.522;2023-08-06T14:41:28;17.08;;;11.85;;